Airfield :
LOGIN :

Register | Disclaimer

   EN    FR    IT 

 










Legend :    VFR   Marginal VFR   IFR   Intensive IFR   Very Intensive IFR
Visi :
Ceiling :
>= 8 km
>= 3000ft
5 to 8 km
1000 to 3000 ft
1500m to 5 km
500 to 1000 ft
800 to 1500m
200 to 500 ft
< 800m
< 200 ft
Symbols :   Thunderstorms  Fog  Heavy snow  Heavy precipitations  Wind > 20 kt
SIGMETs :     Misc.  Thunderstorms  Icing  Turbulence  Mountain Waves  Volcanic Ashes






- Airport Elevation : -11 ft
- IATA code : AMS


EHAM - Amsterdam Schiphol

CURRENT METAR :
  • 162355Z 23023G33KT 9999 FEW040 09/03 Q1003 NOSIG

EXPIRED METARs :
  • 162325Z 24027G39KT 210V270 9999 FEW028 09/04 Q1002 NOSIG
  • 162255Z 24028G40KT 210V270 9999 FEW021 SCT032 09/05 Q1002 NOSIG
  • 162225Z 23027G37KT 9999 FEW016 SCT020 09/06 Q1001 NOSIG
  • 162155Z 23025G36KT 9999 FEW016 BKN020 09/06 Q1000 NOSIG
  • 162125Z 23024G35KT 200V260 9999 FEW016 BKN019 09/06 Q1000 NOSIG

TAF TAF EHAM
Valid from the 17 at 00:00 until the 18 at 06:00 UTC


162317Z 1700/1806 24025G37KT 9999 SCT030
PROB30
TEMPO 1700/1709 7000 -SHRA SCT020CB
BECMG 1704/1707 22020G30KT
TEMPO 1709/1720 6000 -SHRA SCT020CB
PROB30
TEMPO 1710/1718 23025G38KT 4000 SHRAGS SCT015CB BKN018
BECMG 1715/1718 24018KT
PROB30
TEMPO 1720/1802 6000 -SHRA SCT020CB BKN025
BECMG 1721/1724 26020G30KT
BECMG 1803/1806 25018KT



MET'MAP, your aeronautical weather chart ! - Copyright ORBIFLY December 2007 - Disclaimer

ORBIFLY MET'MAP TEAM :

Programming & Development : Alexandra Zaïnal
Concept & original design : Baudouin d'Aumeries
Assistance for programming : Marc-Olivier Méhu
Technical & hardware support : Manuel Goepfert

Contact : metmap@orbifly.com




SOURCES & CREDITS :

   NOAA